Time;durP1;ratioP1;P1;durP2;ratioP2;P2;SDS_P1;SDS_P2;PMS_P1;PMS_P2;Temp;Humidity;BMP_temperature;BMP_pressure;BME280_temperature;BME280_humidity;BME280_pressure;Samples;Min_cycle;Max_cycle;Signal;HPM_P1;HPM_P2
2022/07/19 00:00:51;;;;;;;9.27;4.07;;;25.20;72.90;;;;;;5091505;28;20386;-71
2022/07/19 00:03:58;;;;;;;4.55;3.15;;;25.20;72.80;;;;;;5090793;28;20394;-71
2022/07/19 00:07:03;;;;;;;4.18;3.42;;;25.20;72.70;;;;;;5091804;28;20042;-71
2022/07/19 00:10:09;;;;;;;7.85;3.95;;;25.10;72.80;;;;;;5091119;28;20062;-71
2022/07/19 00:13:13;;;;;;;14.15;5.05;;;25.10;73.00;;;;;;5090769;28;20038;-71
2022/07/19 00:16:16;;;;;;;7.50;4.47;;;25.10;72.90;;;;;;5078362;28;20043;-71
2022/07/19 00:19:21;;;;;;;8.40;4.63;;;24.90;72.70;;;;;;5091077;28;20537;-71
2022/07/19 00:22:26;;;;;;;8.32;4.45;;;24.90;72.20;;;;;;5078655;28;20059;-71
2022/07/19 00:25:30;;;;;;;5.32;4.13;;;24.80;72.30;;;;;;5090988;28;20051;-71
2022/07/19 00:28:35;;;;;;;9.88;3.72;;;24.80;71.50;;;;;;5090924;28;20054;-71
2022/07/19 00:31:39;;;;;;;5.28;4.07;;;24.90;71.10;;;;;;5091029;28;20054;-72
2022/07/19 00:34:43;;;;;;;4.63;3.85;;;24.80;70.80;;;;;;5090708;28;20051;-72
2022/07/19 00:37:47;;;;;;;11.18;4.53;;;24.90;70.60;;;;;;5090904;28;20386;-71
2022/07/19 00:40:52;;;;;;;5.38;3.72;;;24.90;70.80;;;;;;5090833;28;20418;-71
2022/07/19 00:43:59;;;;;;;4.18;3.72;;;24.80;70.70;;;;;;5090318;28;20051;-71
2022/07/19 00:47:05;;;;;;;4.90;3.85;;;24.80;70.90;;;;;;5090685;28;20058;-71
2022/07/19 00:50:09;;;;;;;10.10;3.95;;;24.80;70.90;;;;;;5090764;28;20051;-71
2022/07/19 00:53:15;;;;;;;6.22;4.05;;;24.70;70.90;;;;;;5090123;28;20046;-71
2022/07/19 00:56:19;;;;;;;6.97;4.00;;;24.70;71.40;;;;;;5091160;28;20071;-71
2022/07/19 00:59:23;;;;;;;8.02;4.32;;;24.50;71.70;;;;;;5090634;28;20040;-71
2022/07/19 01:02:28;;;;;;;5.63;3.72;;;24.50;71.60;;;;;;5090624;28;20043;-71
2022/07/19 01:05:32;;;;;;;6.45;3.70;;;24.40;72.40;;;;;;5090464;28;20509;-71
2022/07/19 01:08:37;;;;;;;6.32;4.30;;;24.30;73.50;;;;;;5090595;28;20050;-71
2022/07/19 01:11:42;;;;;;;3.90;3.10;;;24.20;74.60;;;;;;5090981;28;20051;-72
2022/07/19 01:14:46;;;;;;;8.10;4.40;;;24.00;75.40;;;;;;5090077;28;20047;-71
2022/07/19 01:17:51;;;;;;;6.80;3.83;;;23.80;76.10;;;;;;5090095;28;20383;-71
2022/07/19 01:20:57;;;;;;;9.32;3.40;;;23.70;76.00;;;;;;5090652;28;20544;-71
2022/07/19 01:24:01;;;;;;;5.72;3.50;;;23.70;76.40;;;;;;5090366;28;20517;-71
2022/07/19 01:27:05;;;;;;;8.25;3.92;;;23.70;75.70;;;;;;5091646;28;20051;-71
2022/07/19 01:30:15;;;;;;;7.70;3.72;;;23.70;75.60;;;;;;5094832;28;20047;-71
2022/07/19 01:33:19;;;;;;;4.18;3.50;;;23.80;75.50;;;;;;5093448;28;20059;-71
2022/07/19 01:36:23;;;;;;;8.32;3.92;;;23.70;75.20;;;;;;5094608;28;20042;-72
2022/07/19 01:39:28;;;;;;;5.88;3.63;;;23.80;75.20;;;;;;5094409;28;20063;-71
2022/07/19 01:42:31;;;;;;;7.78;3.58;;;23.80;74.90;;;;;;5094608;28;20047;-71
2022/07/19 01:45:35;;;;;;;7.05;3.83;;;23.80;75.00;;;;;;5094050;28;20588;-71
2022/07/19 01:48:39;;;;;;;4.85;3.42;;;23.80;75.20;;;;;;5094084;28;20047;-71
2022/07/19 01:51:43;;;;;;;4.57;3.13;;;23.80;75.20;;;;;;5094159;28;20054;-71
2022/07/19 01:54:47;;;;;;;5.10;3.60;;;23.80;75.80;;;;;;5093836;28;20387;-70
2022/07/19 01:57:51;;;;;;;4.47;3.75;;;23.70;76.10;;;;;;5093901;28;20038;-71
2022/07/19 02:00:55;;;;;;;6.95;4.03;;;23.60;76.40;;;;;;5093625;28;20043;-71
2022/07/19 02:04:00;;;;;;;5.32;3.85;;;23.50;76.80;;;;;;5093434;28;20063;-71
2022/07/19 02:07:04;;;;;;;5.50;3.97;;;23.30;77.10;;;;;;5093913;28;20047;-71
2022/07/19 02:10:08;;;;;;;6.65;3.85;;;23.30;77.10;;;;;;5093367;28;20035;-71
2022/07/19 02:13:12;;;;;;;3.88;3.33;;;23.30;77.30;;;;;;5093321;28;20047;-71
2022/07/19 02:16:16;;;;;;;5.22;3.72;;;23.20;77.50;;;;;;5093554;28;20043;-71
2022/07/19 02:19:21;;;;;;;7.55;3.45;;;23.10;77.80;;;;;;5093466;28;20047;-71
2022/07/19 02:22:26;;;;;;;7.13;3.47;;;23.10;78.00;;;;;;5093503;28;20047;-71
2022/07/19 02:25:29;;;;;;;4.13;3.08;;;23.10;78.10;;;;;;5092901;28;20039;-71
2022/07/19 02:28:33;;;;;;;6.82;3.75;;;23.00;78.10;;;;;;5093534;28;20505;-70
2022/07/19 02:31:37;;;;;;;5.20;3.70;;;23.00;77.90;;;;;;5077330;28;20051;-71
2022/07/19 02:34:41;;;;;;;7.43;4.00;;;23.00;78.20;;;;;;5092321;28;20083;-71
2022/07/19 02:37:45;;;;;;;6.15;3.58;;;23.00;78.20;;;;;;5093302;28;20043;-71
2022/07/19 02:40:49;;;;;;;4.95;3.55;;;23.00;78.30;;;;;;5093540;28;20043;-71
2022/07/19 02:43:53;;;;;;;5.25;3.80;;;22.90;78.20;;;;;;5080572;28;20046;-71
2022/07/19 02:46:58;;;;;;;9.57;3.40;;;22.90;78.30;;;;;;5093160;28;20051;-70
2022/07/19 02:50:02;;;;;;;4.88;3.40;;;23.00;78.40;;;;;;5093060;28;20066;-71
2022/07/19 02:53:06;;;;;;;4.60;3.95;;;23.00;78.60;;;;;;5092933;28;20101;-71
2022/07/19 02:56:10;;;;;;;7.97;4.10;;;22.90;79.00;;;;;;5092790;28;20047;-71
2022/07/19 02:59:15;;;;;;;5.75;3.92;;;22.80;79.10;;;;;;5092820;28;20047;-71
2022/07/19 03:02:18;;;;;;;8.75;3.60;;;22.80;79.10;;;;;;5080585;28;20055;-71
2022/07/19 03:05:22;;;;;;;9.30;3.83;;;22.80;79.20;;;;;;5092879;28;20497;-71
2022/07/19 03:08:26;;;;;;;6.45;3.38;;;22.80;79.10;;;;;;5093379;28;20394;-71
2022/07/19 03:11:30;;;;;;;5.82;4.22;;;22.80;78.90;;;;;;5092274;28;20047;-71
2022/07/19 03:14:35;;;;;;;6.75;3.70;;;22.80;78.40;;;;;;5092559;28;20050;-71
2022/07/19 03:17:38;;;;;;;4.30;3.50;;;22.80;78.30;;;;;;5092390;28;20043;-71
2022/07/19 03:20:43;;;;;;;6.50;4.13;;;22.90;78.20;;;;;;5092385;28;20489;-71
2022/07/19 03:23:46;;;;;;;5.43;3.80;;;22.90;78.20;;;;;;5091910;28;20043;-71
2022/07/19 03:26:51;;;;;;;8.07;3.70;;;22.90;78.20;;;;;;5092237;28;20051;-71
2022/07/19 03:29:54;;;;;;;7.07;3.83;;;22.80;78.70;;;;;;5092031;28;20501;-71
2022/07/19 03:32:59;;;;;;;8.02;4.20;;;22.80;78.90;;;;;;5091774;28;20425;-71
2022/07/19 03:36:04;;;;;;;5.75;3.83;;;22.70;78.90;;;;;;5092092;28;20059;-71
2022/07/19 03:39:08;;;;;;;12.82;3.88;;;22.80;79.10;;;;;;5092098;28;20501;-71
2022/07/19 03:42:12;;;;;;;5.05;3.85;;;22.70;79.30;;;;;;5091992;28;20055;-71
2022/07/19 03:45:16;;;;;;;20.48;4.68;;;22.60;79.50;;;;;;5091790;28;20505;-71
2022/07/19 03:48:21;;;;;;;6.05;3.85;;;22.50;79.80;;;;;;5092120;28;20394;-71
2022/07/19 03:51:25;;;;;;;9.48;4.30;;;22.40;80.00;;;;;;5078429;28;20047;-71
2022/07/19 03:54:30;;;;;;;5.65;4.38;;;22.40;80.60;;;;;;5078970;28;20051;-71
2022/07/19 03:57:34;;;;;;;7.60;4.05;;;22.30;81.30;;;;;;5091656;28;20489;-71
2022/07/19 04:00:39;;;;;;;5.72;3.95;;;22.20;81.40;;;;;;5091516;28;20134;-71
2022/07/19 04:03:42;;;;;;;10.98;4.13;;;22.00;82.20;;;;;;5090955;28;20500;-71
2022/07/19 04:06:47;;;;;;;7.82;3.90;;;22.00;81.80;;;;;;5091659;28;20055;-71
2022/07/19 04:09:50;;;;;;;8.98;4.18;;;22.10;81.50;;;;;;5091561;28;20367;-71
2022/07/19 04:12:55;;;;;;;6.18;4.07;;;22.20;81.90;;;;;;5091630;28;20043;-71
2022/07/19 04:15:59;;;;;;;5.53;4.53;;;22.20;81.10;;;;;;5091447;28;20043;-71
2022/07/19 04:19:03;;;;;;;11.18;4.28;;;22.30;81.30;;;;;;5091266;28;20337;-70
2022/07/19 04:22:06;;;;;;;7.93;3.78;;;22.40;81.10;;;;;;5091202;28;20043;-71
2022/07/19 04:25:11;;;;;;;11.55;4.57;;;22.50;80.50;;;;;;5090798;28;20035;-71
2022/07/19 04:28:16;;;;;;;8.10;5.03;;;22.60;81.20;;;;;;5090952;28;20055;-71
2022/07/19 04:31:20;;;;;;;6.25;4.78;;;22.60;80.30;;;;;;5090783;28;20043;-71
2022/07/19 04:34:24;;;;;;;10.85;4.57;;;22.70;80.30;;;;;;5089583;28;20398;-71
2022/07/19 04:37:28;;;;;;;14.80;5.45;;;22.80;80.30;;;;;;5090662;28;20051;-71
2022/07/19 04:40:32;;;;;;;13.38;5.32;;;22.80;80.70;;;;;;5091042;28;20055;-71
2022/07/19 04:43:36;;;;;;;14.68;5.18;;;22.80;81.90;;;;;;5090522;28;20330;-71
2022/07/19 04:46:40;;;;;;;16.95;6.10;;;23.60;81.40;;;;;;5090476;28;20047;-71
2022/07/19 04:49:44;;;;;;;8.95;4.40;;;26.10;77.60;;;;;;5078702;28;20046;-71
2022/07/19 04:52:48;;;;;;;7.72;3.78;;;28.30;73.60;;;;;;5090743;28;20051;-71
2022/07/19 04:55:53;;;;;;;13.50;4.07;;;29.90;70.30;;;;;;5090835;28;20043;-71
2022/07/19 04:58:57;;;;;;;7.20;4.25;;;31.10;69.70;;;;;;5090478;28;20039;-71
2022/07/19 05:02:01;;;;;;;8.10;3.85;;;31.50;68.60;;;;;;5091128;28;20387;-71
2022/07/19 05:05:06;;;;;;;11.07;4.47;;;32.50;67.30;;;;;;5094392;28;20052;-71
2022/07/19 05:08:10;;;;;;;6.20;3.55;;;33.40;65.80;;;;;;5094857;28;20047;-71
2022/07/19 05:11:15;;;;;;;10.00;4.40;;;33.80;65.90;;;;;;5093571;28;20494;-71
2022/07/19 05:14:19;;;;;;;12.75;4.15;;;34.30;65.60;;;;;;5081504;28;20047;-71
2022/07/19 05:17:24;;;;;;;8.80;4.07;;;34.80;64.60;;;;;;5094050;28;20043;-71
2022/07/19 05:20:28;;;;;;;7.25;4.47;;;35.20;63.60;;;;;;5081594;28;20042;-72
2022/07/19 05:23:32;;;;;;;18.45;5.85;;;35.70;62.90;;;;;;5094051;28;20391;-72
2022/07/19 05:26:37;;;;;;;14.07;4.93;;;35.90;62.90;;;;;;5094178;28;20043;-71
2022/07/19 05:29:42;;;;;;;7.90;3.75;;;36.30;62.80;;;;;;5070255;28;20039;-71
2022/07/19 05:32:45;;;;;;;6.93;3.47;;;36.30;60.50;;;;;;5094805;28;20068;-71
2022/07/19 05:35:52;;;;;;;6.20;3.30;;;36.60;61.20;;;;;;5081828;28;20055;-71
2022/07/19 05:38:56;;;;;;;10.05;3.60;;;36.60;60.30;;;;;;5094371;28;20051;-72
2022/07/19 05:42:00;;;;;;;7.57;3.38;;;36.30;60.30;;;;;;5094296;28;20527;-71
2022/07/19 05:45:04;;;;;;;9.43;3.60;;;36.20;61.10;;;;;;5093908;28;20050;-71
2022/07/19 05:48:08;;;;;;;5.55;3.15;;;36.20;60.70;;;;;;5094062;28;20043;-72
2022/07/19 05:51:12;;;;;;;5.82;3.03;;;36.30;59.80;;;;;;5095047;28;20058;-71
2022/07/19 05:54:17;;;;;;;4.38;2.53;;;36.40;58.70;;;;;;5074784;28;20051;-71
2022/07/19 05:57:21;;;;;;;4.95;2.65;;;36.60;57.70;;;;;;5093887;28;20043;-72
2022/07/19 06:00:25;;;;;;;4.80;2.13;;;35.90;57.10;;;;;;5081313;28;20038;-71
2022/07/19 06:03:29;;;;;;;5.45;2.42;;;35.80;57.20;;;;;;5093449;28;20051;-71
2022/07/19 06:06:34;;;;;;;4.07;2.42;;;35.60;57.50;;;;;;5085715;28;20395;-71
2022/07/19 06:09:38;;;;;;;8.70;2.72;;;35.70;57.80;;;;;;5073390;28;20047;-71
2022/07/19 06:12:42;;;;;;;8.50;2.60;;;35.60;56.90;;;;;;5071892;28;20036;-72
2022/07/19 06:15:46;;;;;;;9.43;2.67;;;35.50;56.80;;;;;;5053099;28;20068;-71
2022/07/19 06:18:50;;;;;;;8.35;2.20;;;35.60;57.10;;;;;;5067104;28;20039;-71
2022/07/19 06:21:54;;;;;;;6.93;2.08;;;36.10;56.90;;;;;;5070157;28;20517;-71
2022/07/19 06:24:58;;;;;;;5.53;2.10;;;36.40;55.70;;;;;;5076212;28;20055;-71
2022/07/19 06:28:03;;;;;;;2.80;2.50;;;36.30;55.60;;;;;;5074714;28;20051;-71
2022/07/19 06:31:08;;;;;;;5.15;2.28;;;34.90;55.80;;;;;;5077248;28;20043;-71
2022/07/19 06:34:12;;;;;;;4.50;2.75;;;34.90;57.00;;;;;;5068827;28;20055;-71
2022/07/19 06:37:17;;;;;;;6.35;2.28;;;35.50;56.40;;;;;;5072489;28;20047;-71
2022/07/19 06:40:21;;;;;;;2.55;2.00;;;35.80;55.60;;;;;;5072714;28;20052;-71
2022/07/19 06:43:25;;;;;;;2.20;2.00;;;36.00;55.20;;;;;;5063617;28;20051;-72
2022/07/19 06:46:29;;;;;;;3.00;2.20;;;36.90;55.20;;;;;;5065736;28;20502;-72
2022/07/19 06:49:34;;;;;;;8.23;2.05;;;36.20;55.90;;;;;;5076697;28;20047;-71
2022/07/19 06:52:38;;;;;;;4.32;2.15;;;35.80;55.30;;;;;;5067726;28;20040;-72
2022/07/19 06:55:42;;;;;;;5.93;2.25;;;36.40;55.10;;;;;;5070618;28;20044;-71
2022/07/19 06:58:46;;;;;;;3.10;1.88;;;36.00;55.60;;;;;;5071786;28;20475;-72
2022/07/19 07:01:51;;;;;;;5.05;2.28;;;35.60;55.40;;;;;;5071346;28;20490;-72
2022/07/19 07:04:55;;;;;;;3.38;1.88;;;35.30;55.60;;;;;;5070510;28;20052;-71
2022/07/19 07:08:00;;;;;;;3.25;2.00;;;35.20;55.50;;;;;;5072215;28;20131;-71
2022/07/19 07:11:04;;;;;;;3.63;2.53;;;36.40;54.90;;;;;;5062496;28;20047;-71
2022/07/19 07:14:08;;;;;;;3.85;2.00;;;35.20;55.20;;;;;;5082525;28;20043;-72
2022/07/19 07:17:13;;;;;;;9.65;2.15;;;35.00;55.00;;;;;;5070492;28;20048;-72
2022/07/19 07:20:18;;;;;;;5.70;1.85;;;36.30;54.60;;;;;;5065438;28;20040;-72
2022/07/19 07:23:23;;;;;;;7.53;2.22;;;35.50;54.20;;;;;;5067794;28;20051;-72
2022/07/19 07:26:28;;;;;;;2.65;1.70;;;36.60;54.80;;;;;;5060837;28;20043;-72
2022/07/19 07:29:32;;;;;;;2.67;1.77;;;36.80;54.40;;;;;;5059347;28;20063;-71
2022/07/19 07:32:36;;;;;;;5.43;2.72;;;37.20;54.20;;;;;;5077694;28;20055;-72
2022/07/19 07:35:40;;;;;;;6.50;1.85;;;38.50;53.20;;;;;;5072099;28;20055;-72
2022/07/19 07:38:44;;;;;;;5.63;2.20;;;38.70;53.10;;;;;;5072377;28;20040;-71
2022/07/19 07:41:48;;;;;;;3.50;2.00;;;39.90;52.40;;;;;;5077418;28;20056;-71
2022/07/19 07:44:52;;;;;;;4.75;2.05;;;39.70;51.80;;;;;;5064336;28;20067;-71
2022/07/19 07:47:56;;;;;;;2.40;1.80;;;39.90;52.20;;;;;;5073376;28;20050;-71
2022/07/19 07:51:00;;;;;;;3.30;1.90;;;41.20;51.70;;;;;;5066349;28;20471;-71
2022/07/19 07:54:04;;;;;;;4.78;1.67;;;41.10;51.30;;;;;;5075763;28;20360;-71
2022/07/19 07:57:09;;;;;;;7.22;1.85;;;41.80;51.70;;;;;;5078497;28;20036;-71
2022/07/19 08:00:13;;;;;;;4.55;1.90;;;42.80;50.50;;;;;;5070482;28;20032;-72
2022/07/19 08:03:19;;;;;;;4.78;1.50;;;43.20;49.60;;;;;;5068598;28;20044;-72
2022/07/19 08:06:23;;;;;;;6.10;1.50;;;41.20;50.00;;;;;;5072864;28;20067;-71
2022/07/19 08:09:27;;;;;;;2.47;1.60;;;39.30;51.40;;;;;;5069657;28;20047;-72
2022/07/19 08:12:31;;;;;;;3.45;1.92;;;39.90;51.50;;;;;;5063800;28;20383;-71
2022/07/19 08:15:38;;;;;;;4.78;1.67;;;39.00;52.30;;;;;;5077845;28;20046;-71
2022/07/19 08:18:43;;;;;;;2.00;1.55;;;40.90;52.30;;;;;;5066822;28;20048;-72
2022/07/19 08:21:47;;;;;;;2.33;1.73;;;42.60;50.80;;;;;;5070911;28;20051;-72
2022/07/19 08:24:51;;;;;;;7.47;1.65;;;43.10;49.80;;;;;;5061035;28;20040;-72
2022/07/19 08:27:56;;;;;;;6.05;1.80;;;43.50;49.50;;;;;;5074257;28;20055;-71
2022/07/19 08:31:00;;;;;;;7.63;2.13;;;44.40;49.60;;;;;;5071493;28;20047;-72
2022/07/19 08:34:04;;;;;;;3.75;1.60;;;45.20;49.20;;;;;;5071475;28;20051;-72
2022/07/19 08:37:08;;;;;;;3.78;1.52;;;46.10;48.30;;;;;;5050031;28;20056;-72
2022/07/19 08:40:13;;;;;;;4.38;1.60;;;46.10;47.90;;;;;;5069478;28;20051;-72
2022/07/19 08:43:18;;;;;;;6.82;1.70;;;46.30;48.00;;;;;;5070511;28;20044;-72
2022/07/19 08:46:23;;;;;;;3.25;1.52;;;46.60;47.40;;;;;;5067758;28;20679;-71
2022/07/19 08:49:27;;;;;;;2.53;1.50;;;46.30;47.30;;;;;;5067171;28;20467;-71
2022/07/19 08:52:33;;;;;;;3.22;1.50;;;46.40;47.40;;;;;;5075163;28;20047;-72
2022/07/19 08:55:37;;;;;;;6.15;1.50;;;45.10;47.90;;;;;;5080120;28;20043;-72
2022/07/19 08:58:41;;;;;;;2.78;1.55;;;45.20;47.70;;;;;;5073934;28;20048;-72
2022/07/19 09:01:46;;;;;;;3.70;1.63;;;46.10;47.30;;;;;;5079357;28;20047;-72
2022/07/19 09:05:20;;;;;;;5.95;1.60;;;44.00;46.70;;;;;;5069359;28;20055;-71
2022/07/19 09:08:23;;;;;;;8.93;2.10;;;44.50;47.50;;;;;;5070649;28;20490;-71
2022/07/19 09:11:35;;;;;;;2.05;1.50;;;45.70;47.50;;;;;;5069619;28;20048;-72
2022/07/19 09:14:39;;;;;;;6.82;1.88;;;46.10;47.10;;;;;;5060710;28;20513;-72
2022/07/19 09:17:44;;;;;;;3.50;1.60;;;46.30;46.60;;;;;;5067015;28;20047;-71
2022/07/19 09:20:51;;;;;;;5.80;1.50;;;47.20;46.70;;;;;;5070435;28;20040;-70
2022/07/19 09:23:57;;;;;;;2.08;1.55;;;46.40;46.70;;;;;;5065611;28;20123;-71
2022/07/19 09:27:11;;;;;;;4.57;1.75;;;43.00;47.40;;;;;;5080327;28;20047;-71
2022/07/19 09:30:36;;;;;;;2.80;1.70;;;43.60;48.00;;;;;;5070601;28;20505;-70
2022/07/19 09:33:46;;;;;;;3.08;1.80;;;43.10;48.10;;;;;;5071100;28;20048;-70
2022/07/19 09:37:27;;;;;;;4.18;1.85;;;43.30;48.20;;;;;;5070690;28;20047;-70
2022/07/19 09:40:32;;;;;;;4.00;2.00;;;41.40;48.80;;;;;;5067238;28;20040;-69
2022/07/19 09:43:55;;;;;;;2.13;1.50;;;41.90;49.20;;;;;;5081568;28;20044;-72
2022/07/19 09:47:00;;;;;;;3.28;1.40;;;44.20;48.00;;;;;;5041796;28;20623;-72
2022/07/19 09:50:10;;;;;;;2.22;1.40;;;46.50;47.30;;;;;;5079374;28;20047;-70
2022/07/19 09:53:15;;;;;;;4.50;1.80;;;45.30;47.30;;;;;;5073654;28;20387;-70
2022/07/19 09:56:19;;;;;;;4.57;1.77;;;42.40;47.10;;;;;;5069253;28;20521;-71
2022/07/19 09:59:26;;;;;;;3.38;1.45;;;43.40;48.60;;;;;;5080740;28;20126;-72
2022/07/19 10:02:37;;;;;;;5.60;1.50;;;46.40;47.40;;;;;;5066045;28;20040;-72
2022/07/19 10:05:41;;;;;;;3.10;1.60;;;45.80;47.40;;;;;;5062667;28;20035;-72
2022/07/19 10:08:45;;;;;;;2.15;1.55;;;44.60;47.60;;;;;;5073842;28;20047;-72
2022/07/19 10:11:51;;;;;;;6.30;1.77;;;44.40;47.70;;;;;;5073259;28;20051;-72
2022/07/19 10:14:56;;;;;;;2.47;1.52;;;46.70;46.90;;;;;;5070854;28;20043;-70
2022/07/19 10:18:12;;;;;;;3.50;1.50;;;48.90;46.40;;;;;;5057948;28;20059;-72
2022/07/19 10:21:16;;;;;;;1.85;1.60;;;47.70;45.20;;;;;;5077421;28;20046;-72
2022/07/19 10:24:51;;;;;;;1.73;1.33;;;48.80;46.10;;;;;;5067465;28;20047;-72
2022/07/19 10:27:54;;;;;;;1.42;1.30;;;49.00;45.70;;;;;;5071771;28;20051;-72
2022/07/19 10:30:59;;;;;;;1.73;1.25;;;47.60;45.00;;;;;;5071163;28;20067;-72
2022/07/19 10:34:25;;;;;;;2.67;1.60;;;46.10;45.40;;;;;;5082467;28;20043;-72
2022/07/19 10:37:44;;;;;;;4.35;1.42;;;46.50;46.30;;;;;;5074597;28;20477;-72
2022/07/19 10:40:50;;;;;;;3.00;1.42;;;49.60;45.50;;;;;;5069464;28;20032;-73
2022/07/19 10:44:09;;;;;;;6.97;1.48;;;49.00;44.90;;;;;;5071451;28;20059;-72
2022/07/19 10:47:14;;;;;;;3.92;1.50;;;48.20;45.20;;;;;;5079007;28;20036;-73
2022/07/19 10:50:20;;;;;;;2.47;1.50;;;41.60;46.60;;;;;;5069980;28;20035;-72
2022/07/19 10:53:54;;;;;;;1.40;1.30;;;44.10;47.10;;;;;;5070839;28;20055;-72
2022/07/19 10:56:59;;;;;;;4.32;1.92;;;44.90;47.30;;;;;;5070983;28;20059;-72
2022/07/19 11:00:19;;;;;;;4.20;1.40;;;46.90;46.60;;;;;;5071652;28;20055;-71
2022/07/19 11:03:23;;;;;;;3.53;1.63;;;46.80;46.00;;;;;;5070119;28;20063;-72
2022/07/19 11:06:27;;;;;;;1.30;1.05;;;49.00;45.20;;;;;;5071634;28;20395;-72
2022/07/19 11:09:56;;;;;;;6.95;1.77;;;49.90;45.00;;;;;;5065285;28;20055;-73
2022/07/19 11:13:00;;;;;;;1.85;1.10;;;50.30;44.30;;;;;;5057900;28;20040;-73
2022/07/19 11:16:04;;;;;;;2.15;1.30;;;48.90;44.90;;;;;;5079401;28;20130;-73
2022/07/19 11:19:10;;;;;;;2.65;1.30;;;45.40;45.40;;;;;;5068654;28;20035;-72
2022/07/19 11:22:15;;;;;;;3.35;1.52;;;45.10;46.80;;;;;;5075544;28;20051;-72
2022/07/19 11:25:28;;;;;;;3.55;1.52;;;45.30;46.50;;;;;;5058976;28;20047;-72
2022/07/19 11:28:33;;;;;;;2.50;1.50;;;45.80;46.40;;;;;;5057626;28;20051;-72
2022/07/19 11:31:46;;;;;;;2.85;1.50;;;47.10;46.80;;;;;;5072019;28;20051;-72
2022/07/19 11:35:02;;;;;;;5.47;1.67;;;47.10;45.70;;;;;;5074883;28;20051;-72
2022/07/19 11:38:07;;;;;;;2.78;1.73;;;46.80;45.30;;;;;;5068093;28;20044;-72
2022/07/19 11:41:16;;;;;;;4.00;1.27;;;46.30;45.40;;;;;;5070418;28;20044;-72
2022/07/19 11:44:20;;;;;;;2.50;1.48;;;47.00;46.00;;;;;;5052216;28;20391;-72
2022/07/19 11:47:26;;;;;;;2.03;1.25;;;46.70;45.70;;;;;;5066627;28;20043;-72
2022/07/19 11:50:34;;;;;;;1.67;1.15;;;48.00;45.40;;;;;;5071751;28;20099;-72
2022/07/19 11:53:39;;;;;;;3.28;1.42;;;49.10;45.10;;;;;;5070351;28;20459;-72
2022/07/19 11:56:44;;;;;;;3.55;1.55;;;49.60;44.50;;;;;;5073581;28;20497;-72
2022/07/19 11:59:48;;;;;;;2.35;1.40;;;48.80;44.40;;;;;;5086456;28;20110;-72
2022/07/19 12:03:08;;;;;;;2.33;1.80;;;47.60;45.20;;;;;;5070194;28;20040;-72
2022/07/19 12:06:16;;;;;;;2.72;1.50;;;47.70;45.10;;;;;;5068495;28;20056;-71
2022/07/19 12:09:30;;;;;;;3.53;1.70;;;48.20;45.00;;;;;;5075794;28;20051;-71
2022/07/19 12:12:40;;;;;;;3.58;1.80;;;48.60;44.70;;;;;;5071048;28;20390;-71
2022/07/19 12:15:51;;;;;;;9.00;6.03;;;48.40;44.60;;;;;;5066255;28;20505;-72
2022/07/19 12:18:57;;;;;;;7.57;6.78;;;47.20;45.30;;;;;;5072849;28;20059;-71
2022/07/19 12:22:01;;;;;;;4.13;1.65;;;44.60;46.40;;;;;;5067815;28;20036;-71
2022/07/19 12:25:08;;;;;;;5.03;2.08;;;43.40;47.20;;;;;;5055103;28;20048;-71
2022/07/19 12:28:12;;;;;;;3.05;1.92;;;42.50;48.00;;;;;;5075902;28;20051;-72
2022/07/19 12:31:17;;;;;;;2.90;2.03;;;43.20;47.80;;;;;;5069649;28;20047;-71
2022/07/19 12:34:22;;;;;;;5.13;2.20;;;42.50;48.10;;;;;;5068383;28;20043;-72
2022/07/19 12:37:31;;;;;;;2.78;2.05;;;40.50;48.90;;;;;;5038486;28;20067;-73
2022/07/19 12:40:36;;;;;;;4.35;2.17;;;39.10;50.60;;;;;;5073887;28;20043;-73
2022/07/19 12:43:41;;;;;;;5.15;2.08;;;38.80;49.80;;;;;;5065991;28;20043;-71
2022/07/19 12:46:45;;;;;;;3.97;2.50;;;39.40;50.10;;;;;;5063765;28;20064;-71
2022/07/19 12:49:49;;;;;;;2.85;2.17;;;39.20;50.00;;;;;;5070051;28;20035;-71
2022/07/19 12:52:56;;;;;;;8.38;2.92;;;39.70;50.50;;;;;;5075525;28;20043;-72
2022/07/19 12:56:02;;;;;;;3.55;2.40;;;39.10;50.10;;;;;;5069809;28;20510;-72
2022/07/19 13:02:30;;;;;;;3.45;2.42;;;41.20;49.40;;;;;;5064321;28;20414;-71
2022/07/19 13:05:34;;;;;;;6.30;2.40;;;40.30;48.70;;;;;;5062168;28;20377;-72
2022/07/19 13:08:38;;;;;;;5.82;2.50;;;40.10;49.50;;;;;;5044288;28;20525;-74
2022/07/19 13:11:43;;;;;;;3.25;2.10;;;40.50;49.90;;;;;;5063472;28;20036;-71
2022/07/19 13:14:47;;;;;;;7.60;2.42;;;38.40;50.30;;;;;;5062877;28;20048;-71
2022/07/19 13:17:52;;;;;;;2.03;1.77;;;38.30;50.50;;;;;;5063700;28;20044;-72
2022/07/19 13:20:57;;;;;;;5.03;2.47;;;39.30;50.80;;;;;;5069750;28;20044;-71
2022/07/19 13:24:01;;;;;;;2.97;2.10;;;39.10;50.50;;;;;;5068980;28;20047;-72
2022/07/19 13:27:05;;;;;;;11.32;2.33;;;39.40;50.60;;;;;;5073465;28;20056;-71
2022/07/19 13:30:10;;;;;;;4.18;2.20;;;39.30;50.00;;;;;;5076290;28;20121;-71
2022/07/19 13:33:15;;;;;;;3.35;2.40;;;40.10;50.00;;;;;;5075291;28;20043;-71
2022/07/19 13:36:19;;;;;;;3.50;2.30;;;40.60;50.10;;;;;;5081817;28;20802;-70
2022/07/19 13:39:23;;;;;;;3.78;2.25;;;40.80;49.50;;;;;;5075665;28;20450;-71
2022/07/19 13:42:27;;;;;;;2.38;1.83;;;41.50;49.10;;;;;;5064375;28;20043;-71
2022/07/19 13:45:31;;;;;;;4.43;2.45;;;41.60;49.10;;;;;;5062413;28;20044;-71
2022/07/19 13:48:35;;;;;;;5.20;2.13;;;41.10;48.60;;;;;;5065740;28;20509;-71
2022/07/19 13:51:40;;;;;;;2.53;2.22;;;40.90;49.20;;;;;;5066211;28;20052;-71
2022/07/19 13:54:43;;;;;;;3.67;2.10;;;40.40;48.90;;;;;;5069168;28;20497;-71
2022/07/19 13:57:47;;;;;;;4.28;2.20;;;41.00;49.30;;;;;;5071584;28;20044;-72
2022/07/19 14:00:51;;;;;;;4.15;2.03;;;41.40;48.90;;;;;;5072903;28;20035;-71
2022/07/19 14:03:56;;;;;;;2.85;2.05;;;41.00;48.80;;;;;;5072108;28;20044;-71
2022/07/19 14:06:59;;;;;;;2.70;1.90;;;41.60;49.40;;;;;;5065887;28;20035;-71
2022/07/19 14:10:08;;;;;;;5.40;2.10;;;41.70;48.80;;;;;;5063980;28;20045;-71
2022/07/19 14:13:12;;;;;;;2.58;2.28;;;41.80;48.60;;;;;;5059273;28;20052;-72
2022/07/19 14:16:16;;;;;;;4.63;2.08;;;41.60;48.20;;;;;;5054708;28;20048;-71
2022/07/19 14:19:20;;;;;;;5.07;2.40;;;40.20;49.20;;;;;;5054787;28;20388;-71
2022/07/19 14:22:25;;;;;;;6.28;2.40;;;40.50;49.30;;;;;;5061667;28;20032;-71
2022/07/19 14:25:30;;;;;;;4.25;2.13;;;40.20;49.10;;;;;;5066620;28;20398;-71
2022/07/19 14:28:33;;;;;;;3.65;2.30;;;40.10;49.20;;;;;;5059022;28;20047;-71
2022/07/19 14:31:37;;;;;;;2.83;2.00;;;39.70;49.90;;;;;;5060141;28;20040;-72
2022/07/19 14:34:41;;;;;;;2.80;1.95;;;39.40;49.80;;;;;;5068896;28;20063;-72
2022/07/19 14:37:45;;;;;;;4.38;2.80;;;39.20;49.80;;;;;;5059029;28;20494;-72
2022/07/19 14:40:50;;;;;;;6.35;2.30;;;38.00;51.10;;;;;;5070340;28;20048;-71
2022/07/19 14:43:54;;;;;;;4.55;2.38;;;37.70;51.40;;;;;;5069894;28;20602;-72
2022/07/19 14:46:58;;;;;;;4.35;2.35;;;38.40;51.20;;;;;;5057875;28;20043;-72
2022/07/19 14:50:06;;;;;;;7.13;2.35;;;38.70;50.40;;;;;;5050619;28;20040;-71
2022/07/19 14:53:11;;;;;;;3.35;2.10;;;37.60;51.00;;;;;;5064789;28;20048;-71
2022/07/19 14:56:16;;;;;;;2.60;2.10;;;37.90;51.00;;;;;;5065691;28;20039;-71
2022/07/19 14:59:21;;;;;;;5.00;2.30;;;37.50;51.10;;;;;;5063726;28;20040;-71
2022/07/19 15:02:25;;;;;;;2.72;2.03;;;36.60;52.00;;;;;;5066055;28;20491;-73
2022/07/19 15:05:29;;;;;;;5.50;2.42;;;37.10;51.80;;;;;;5055822;28;20048;-72
2022/07/19 15:08:33;;;;;;;2.88;2.05;;;36.70;52.20;;;;;;5049368;28;20052;-71
2022/07/19 15:11:39;;;;;;;2.63;1.90;;;37.10;51.80;;;;;;5072003;28;20044;-72
2022/07/19 15:14:43;;;;;;;4.13;2.20;;;37.70;51.80;;;;;;5071173;28;20048;-71
2022/07/19 15:17:47;;;;;;;5.00;2.20;;;38.00;51.50;;;;;;5070489;28;20043;-72
2022/07/19 15:20:51;;;;;;;7.47;2.60;;;38.10;51.30;;;;;;5058930;28;20039;-72
2022/07/19 15:23:55;;;;;;;4.95;2.10;;;38.40;51.50;;;;;;5071379;28;20362;-72
2022/07/19 15:26:59;;;;;;;4.43;2.55;;;38.80;51.00;;;;;;5071213;28;20509;-71
2022/07/19 15:30:04;;;;;;;3.70;2.30;;;38.10;51.20;;;;;;5071386;28;20033;-70
2022/07/19 15:33:08;;;;;;;3.00;2.40;;;38.10;51.20;;;;;;5071448;28;20063;-71
2022/07/19 15:36:12;;;;;;;3.95;2.15;;;37.30;51.80;;;;;;5070541;28;20498;-71
2022/07/19 15:39:17;;;;;;;7.38;2.47;;;37.30;51.90;;;;;;5070959;28;20044;-71
2022/07/19 15:42:21;;;;;;;8.50;2.78;;;37.40;52.00;;;;;;5071040;28;20494;-71
2022/07/19 15:45:26;;;;;;;4.40;2.47;;;37.20;52.30;;;;;;5069529;28;20059;-70
2022/07/19 15:48:29;;;;;;;6.00;2.65;;;37.30;52.00;;;;;;5069938;28;20050;-71
2022/07/19 15:51:35;;;;;;;6.63;2.47;;;37.30;52.10;;;;;;5071013;28;20055;-71
2022/07/19 15:54:39;;;;;;;7.15;2.80;;;37.20;52.50;;;;;;5070455;28;20039;-72
2022/07/19 15:57:45;;;;;;;13.05;2.65;;;37.00;52.40;;;;;;5070650;28;20039;-72
2022/07/19 16:00:49;;;;;;;7.63;2.38;;;37.00;52.50;;;;;;5070926;28;20044;-73
2022/07/19 16:03:53;;;;;;;5.45;2.60;;;36.90;52.80;;;;;;5070437;28;20048;-72
2022/07/19 16:06:57;;;;;;;3.70;2.42;;;36.80;52.60;;;;;;5070807;28;20494;-73